Київ, Ukraine

2017.01.20 13:51 EET (GMT +0200)
Zhuliany | | Change Station

Вис 551 ft 50.40 °N, 30.45 °E | Updated 21 minutes ago

Сніг
Сніг
23 °F
відчувається як 11 °F
Пн
13
Вітер Змінний Вітер із Західний

Сьогодні
Високе -- | Низьке -- °F
--% імов. опадів
Вчора
Високе -- | Низьке -- °F
Precip. -- дюймів
Тиск 30.33 дюймів
Видимість -9999.0 миль
Хмари Переважно хмарно 800 ft
Похмуро 2000 ft
Температура з урахуванням вітру 11 °F
Точка Роси 21 °F
Вологість 93%
Кільк. опадів 0.00 дюймів
Висота Снігу немає даних.
7:47 AM 4:30 PM
Остання чверть, 45% visible
METAR UKKK 201130Z 27006MPS 4800 -SN BR BKN008 OVC020 M05/M06 Q1027 R26/590145 TEMPO OVC005
Тиск 30.33 дюймів
Видимість -9999.0 миль
Хмари Переважно хмарно 800 ft
Похмуро 2000 ft
Температура з урахуванням вітру 11 °F
Точка Роси 21 °F
Вологість 93%
Кільк. опадів 0.00 дюймів
Висота Снігу немає даних.
7:47 AM 4:30 PM
Остання чверть, 45% visible
METAR UKKK 201130Z 27006MPS 4800 -SN BR BKN008 OVC020 M05/M06 Q1027 R26/590145 TEMPO OVC005

Get Your Daily Forecast Email!

Thanks for signing up!

Be on the lookout for a verification email in your inbox.

You'll start receiving the daily forecast at 8 AM.

×

10-Day Weather Forecast

×

Almanac

Астрономія

Jan. 20, 2017 Схід Захід
Фактичний час
Цивільні Сутінки
Навігаційні Сутінки
Астрономічні Сутінки
Місяць
Тривалість видимого світла
Тривалість дня
Tomorrow will be .
, % of the Moon is Illuminated

Сьогоднішні Екстремуми

Максимуми краю Мінімуми краю

Community

WunderPhotos

Upload Photos

1,962,540 фото завантажено!

WunderBlog® & News

Nearby

Якість Повітря

  Якість Повітря Індекс Якості Повітря Забруднювач
Not available.

Висота Снігу

Станція Висота Висота

Активність Землетрусів

Місто Відстань Маг. Час і Дата
Мінімальна магнітуда, що відібражається, 2,5.

Прибережна температура води

Місто Температура

Stations

Метеостанції поряд

Локація Станції Темп. Температура з урахуванням вітру Точка Роси Вологість Вітер Precip. Вис Останні відомості Тип